sensor_id;sensor_type;location;lat;lon;timestamp;temperature;humidity
66328;DHT22;53133;52.862;6.602;2022-10-04T00:09:43;12.70;99.90
66328;DHT22;53133;52.862;6.602;2022-10-04T00:12:54;12.70;99.90
66328;DHT22;53133;52.862;6.602;2022-10-04T00:17:43;12.70;99.90
66328;DHT22;53133;52.862;6.602;2022-10-04T00:25:56;12.70;99.90
66328;DHT22;53133;52.862;6.602;2022-10-04T00:31:19;12.70;99.90
66328;DHT22;53133;52.862;6.602;2022-10-04T00:44:41;12.70;99.90
66328;DHT22;53133;52.862;6.602;2022-10-04T00:49:45;12.70;99.90
66328;DHT22;53133;52.862;6.602;2022-10-04T00:52:21;12.70;99.90
66328;DHT22;53133;52.862;6.602;2022-10-04T00:54:59;12.70;99.90
66328;DHT22;53133;52.862;6.602;2022-10-04T00:57:33;12.70;99.90
66328;DHT22;53133;52.862;6.602;2022-10-04T01:00:07;12.70;99.90
66328;DHT22;53133;52.862;6.602;2022-10-04T01:05:20;12.60;99.90
66328;DHT22;53133;52.862;6.602;2022-10-04T01:08:11;12.60;99.90
66328;DHT22;53133;52.862;6.602;2022-10-04T01:10:52;12.60;99.90
66328;DHT22;53133;52.862;6.602;2022-10-04T01:13:20;12.60;99.90
66328;DHT22;53133;52.862;6.602;2022-10-04T01:16:14;12.50;99.90
66328;DHT22;53133;52.862;6.602;2022-10-04T01:18:42;12.50;99.90
66328;DHT22;53133;52.862;6.602;2022-10-04T01:21:22;12.50;99.90
66328;DHT22;53133;52.862;6.602;2022-10-04T01:29:14;12.50;99.90
66328;DHT22;53133;52.862;6.602;2022-10-04T01:31:50;12.50;99.90
66328;DHT22;53133;52.862;6.602;2022-10-04T01:34:19;12.50;99.90
66328;DHT22;53133;52.862;6.602;2022-10-04T01:36:46;12.50;99.90
66328;DHT22;53133;52.862;6.602;2022-10-04T01:39:14;12.50;99.90
66328;DHT22;53133;52.862;6.602;2022-10-04T01:47:07;12.50;99.90
66328;DHT22;53133;52.862;6.602;2022-10-04T01:49:37;12.60;99.90
66328;DHT22;53133;52.862;6.602;2022-10-04T01:54:43;12.60;99.90
66328;DHT22;53133;52.862;6.602;2022-10-04T01:57:22;12.60;99.90
66328;DHT22;53133;52.862;6.602;2022-10-04T01:59:54;12.70;99.90
66328;DHT22;53133;52.862;6.602;2022-10-04T02:05:15;12.70;99.90
66328;DHT22;53133;52.862;6.602;2022-10-04T02:07:43;12.60;99.90
66328;DHT22;53133;52.862;6.602;2022-10-04T02:10:14;12.70;99.90
66328;DHT22;53133;52.862;6.602;2022-10-04T02:12:48;12.70;99.90
66328;DHT22;53133;52.862;6.602;2022-10-04T02:15:17;12.60;99.90
66328;DHT22;53133;52.862;6.602;2022-10-04T02:17:45;12.70;99.90
66328;DHT22;53133;52.862;6.602;2022-10-04T02:20:15;12.70;99.90
66328;DHT22;53133;52.862;6.602;2022-10-04T02:22:42;12.70;99.90
66328;DHT22;53133;52.862;6.602;2022-10-04T02:25:09;12.70;99.90
66328;DHT22;53133;52.862;6.602;2022-10-04T02:27:35;12.60;99.90
66328;DHT22;53133;52.862;6.602;2022-10-04T02:30:07;12.60;99.90
66328;DHT22;53133;52.862;6.602;2022-10-04T02:32:34;12.60;99.90
66328;DHT22;53133;52.862;6.602;2022-10-04T02:35:19;12.50;99.90
66328;DHT22;53133;52.862;6.602;2022-10-04T02:37:47;12.50;99.90
66328;DHT22;53133;52.862;6.602;2022-10-04T02:40:22;12.50;99.90
66328;DHT22;53133;52.862;6.602;2022-10-04T02:43:01;12.50;99.90
66328;DHT22;53133;52.862;6.602;2022-10-04T02:45:47;12.40;99.90
66328;DHT22;53133;52.862;6.602;2022-10-04T02:48:57;12.40;99.90
66328;DHT22;53133;52.862;6.602;2022-10-04T02:54:54;12.40;99.90
66328;DHT22;53133;52.862;6.602;2022-10-04T02:57:00;12.30;99.90
66328;DHT22;53133;52.862;6.602;2022-10-04T02:59:26;12.30;99.90
66328;DHT22;53133;52.862;6.602;2022-10-04T03:01:55;12.40;99.90
66328;DHT22;53133;52.862;6.602;2022-10-04T03:04:29;12.30;99.90
66328;DHT22;53133;52.862;6.602;2022-10-04T03:06:57;12.30;99.90
66328;DHT22;53133;52.862;6.602;2022-10-04T03:09:24;12.30;99.90
66328;DHT22;53133;52.862;6.602;2022-10-04T03:11:50;12.30;99.90
66328;DHT22;53133;52.862;6.602;2022-10-04T03:14:22;12.30;99.90
66328;DHT22;53133;52.862;6.602;2022-10-04T03:16:50;12.30;99.90
66328;DHT22;53133;52.862;6.602;2022-10-04T03:19:19;12.30;99.90
66328;DHT22;53133;52.862;6.602;2022-10-04T03:21:50;12.30;99.90
66328;DHT22;53133;52.862;6.602;2022-10-04T03:24:20;12.20;99.90
66328;DHT22;53133;52.862;6.602;2022-10-04T03:26:55;12.20;99.90
66328;DHT22;53133;52.862;6.602;2022-10-04T03:29:23;12.20;99.90
66328;DHT22;53133;52.862;6.602;2022-10-04T03:31:51;12.20;99.90
66328;DHT22;53133;52.862;6.602;2022-10-04T03:34:47;12.20;99.90
66328;DHT22;53133;52.862;6.602;2022-10-04T03:37:15;12.20;99.90
66328;DHT22;53133;52.862;6.602;2022-10-04T03:39:44;12.10;99.90
66328;DHT22;53133;52.862;6.602;2022-10-04T03:42:24;12.10;99.90
66328;DHT22;53133;52.862;6.602;2022-10-04T03:44:53;12.10;99.90
66328;DHT22;53133;52.862;6.602;2022-10-04T03:47:29;12.10;99.90
66328;DHT22;53133;52.862;6.602;2022-10-04T03:50:04;12.10;99.90
66328;DHT22;53133;52.862;6.602;2022-10-04T03:52:33;12.10;99.90
66328;DHT22;53133;52.862;6.602;2022-10-04T03:55:02;12.00;99.90
66328;DHT22;53133;52.862;6.602;2022-10-04T03:57:30;12.00;99.90
66328;DHT22;53133;52.862;6.602;2022-10-04T03:59:57;12.00;99.90
66328;DHT22;53133;52.862;6.602;2022-10-04T04:02:35;12.00;99.90
66328;DHT22;53133;52.862;6.602;2022-10-04T04:05:15;12.00;99.90
66328;DHT22;53133;52.862;6.602;2022-10-04T04:07:46;11.90;99.90
66328;DHT22;53133;52.862;6.602;2022-10-04T04:10:30;11.90;99.90
66328;DHT22;53133;52.862;6.602;2022-10-04T04:15:32;11.90;99.90
66328;DHT22;53133;52.862;6.602;2022-10-04T04:18:04;11.80;99.90
66328;DHT22;53133;52.862;6.602;2022-10-04T04:20:38;11.80;99.90
66328;DHT22;53133;52.862;6.602;2022-10-04T04:25:42;11.80;99.90
66328;DHT22;53133;52.862;6.602;2022-10-04T04:28:33;11.80;99.90
66328;DHT22;53133;52.862;6.602;2022-10-04T04:31:15;11.80;99.90
66328;DHT22;53133;52.862;6.602;2022-10-04T04:36:23;11.80;99.90
66328;DHT22;53133;52.862;6.602;2022-10-04T04:38:49;11.70;99.90
66328;DHT22;53133;52.862;6.602;2022-10-04T04:41:33;11.70;99.90
66328;DHT22;53133;52.862;6.602;2022-10-04T04:44:00;11.70;99.90
66328;DHT22;53133;52.862;6.602;2022-10-04T04:46:26;11.70;99.90
66328;DHT22;53133;52.862;6.602;2022-10-04T04:48:59;11.70;99.90
66328;DHT22;53133;52.862;6.602;2022-10-04T04:51:26;11.70;99.90
66328;DHT22;53133;52.862;6.602;2022-10-04T04:53:54;11.70;99.90
66328;DHT22;53133;52.862;6.602;2022-10-04T04:56:25;11.70;99.90
66328;DHT22;53133;52.862;6.602;2022-10-04T04:58:54;11.70;99.90
66328;DHT22;53133;52.862;6.602;2022-10-04T05:01:26;11.70;99.90
66328;DHT22;53133;52.862;6.602;2022-10-04T05:06:35;11.70;99.90
66328;DHT22;53133;52.862;6.602;2022-10-04T05:09:01;11.60;99.90
66328;DHT22;53133;52.862;6.602;2022-10-04T05:11:30;11.70;99.90
66328;DHT22;53133;52.862;6.602;2022-10-04T05:14:02;11.70;99.90
66328;DHT22;53133;52.862;6.602;2022-10-04T05:21:43;11.60;99.90
66328;DHT22;53133;52.862;6.602;2022-10-04T05:24:16;11.60;99.90
66328;DHT22;53133;52.862;6.602;2022-10-04T05:26:43;11.60;99.90
66328;DHT22;53133;52.862;6.602;2022-10-04T05:29:17;11.60;99.90
66328;DHT22;53133;52.862;6.602;2022-10-04T05:31:58;11.60;99.90
66328;DHT22;53133;52.862;6.602;2022-10-04T05:34:26;11.60;99.90
66328;DHT22;53133;52.862;6.602;2022-10-04T05:39:53;11.50;99.90
66328;DHT22;53133;52.862;6.602;2022-10-04T05:42:36;11.50;99.90
66328;DHT22;53133;52.862;6.602;2022-10-04T05:45:22;11.50;99.90
66328;DHT22;53133;52.862;6.602;2022-10-04T05:47:51;11.50;99.90
66328;DHT22;53133;52.862;6.602;2022-10-04T05:50:35;11.50;99.90
66328;DHT22;53133;52.862;6.602;2022-10-04T05:53:30;11.50;99.90
66328;DHT22;53133;52.862;6.602;2022-10-04T06:01:52;11.50;99.90
66328;DHT22;53133;52.862;6.602;2022-10-04T06:12:45;11.50;99.90
66328;DHT22;53133;52.862;6.602;2022-10-04T06:15:49;11.50;99.90
66328;DHT22;53133;52.862;6.602;2022-10-04T06:18:42;11.50;99.90
66328;DHT22;53133;52.862;6.602;2022-10-04T06:21:24;11.50;99.90
66328;DHT22;53133;52.862;6.602;2022-10-04T06:26:47;11.40;99.90
66328;DHT22;53133;52.862;6.602;2022-10-04T06:29:20;11.40;99.90
66328;DHT22;53133;52.862;6.602;2022-10-04T06:34:57;11.40;99.90
66328;DHT22;53133;52.862;6.602;2022-10-04T06:37:37;11.40;99.90
66328;DHT22;53133;52.862;6.602;2022-10-04T06:43:12;11.50;99.90
66328;DHT22;53133;52.862;6.602;2022-10-04T07:00:12;11.50;99.90
66328;DHT22;53133;52.862;6.602;2022-10-04T07:02:57;11.60;99.90
66328;DHT22;53133;52.862;6.602;2022-10-04T07:05:47;11.60;99.90
66328;DHT22;53133;52.862;6.602;2022-10-04T07:08:27;11.70;99.90
66328;DHT22;53133;52.862;6.602;2022-10-04T07:13:29;11.70;99.90
66328;DHT22;53133;52.862;6.602;2022-10-04T07:16:02;11.80;99.90
66328;DHT22;53133;52.862;6.602;2022-10-04T07:21:11;11.90;99.90
66328;DHT22;53133;52.862;6.602;2022-10-04T07:23:48;11.90;99.90
66328;DHT22;53133;52.862;6.602;2022-10-04T07:26:28;12.00;99.90
66328;DHT22;53133;52.862;6.602;2022-10-04T07:28:57;12.00;99.90
66328;DHT22;53133;52.862;6.602;2022-10-04T07:31:45;12.00;99.90
66328;DHT22;53133;52.862;6.602;2022-10-04T07:34:21;12.00;99.90
66328;DHT22;53133;52.862;6.602;2022-10-04T07:36:55;12.00;99.90
66328;DHT22;53133;52.862;6.602;2022-10-04T07:42:32;12.10;99.90
66328;DHT22;53133;52.862;6.602;2022-10-04T07:45:24;12.10;99.90
66328;DHT22;53133;52.862;6.602;2022-10-04T07:48:08;12.10;99.90
66328;DHT22;53133;52.862;6.602;2022-10-04T07:53:41;12.20;99.90
66328;DHT22;53133;52.862;6.602;2022-10-04T07:56:18;12.30;99.90
66328;DHT22;53133;52.862;6.602;2022-10-04T07:58:59;12.40;99.90
66328;DHT22;53133;52.862;6.602;2022-10-04T08:04:22;12.50;99.90
66328;DHT22;53133;52.862;6.602;2022-10-04T08:07:02;12.50;99.90
66328;DHT22;53133;52.862;6.602;2022-10-04T08:17:52;12.80;99.90
66328;DHT22;53133;52.862;6.602;2022-10-04T08:23:19;12.90;99.90
66328;DHT22;53133;52.862;6.602;2022-10-04T09:03:10;13.10;99.90
66328;DHT22;53133;52.862;6.602;2022-10-04T09:20:56;13.40;99.90
66328;DHT22;53133;52.862;6.602;2022-10-04T09:29:17;13.50;99.90
66328;DHT22;53133;52.862;6.602;2022-10-04T09:37:31;13.60;99.90
66328;DHT22;53133;52.862;6.602;2022-10-04T09:54:35;13.90;99.90
66328;DHT22;53133;52.862;6.602;2022-10-04T10:00:15;14.00;99.90
66328;DHT22;53133;52.862;6.602;2022-10-04T10:03:10;14.00;99.90
66328;DHT22;53133;52.862;6.602;2022-10-04T10:17:27;14.30;99.90
66328;DHT22;53133;52.862;6.602;2022-10-04T10:20:19;14.40;99.90
66328;DHT22;53133;52.862;6.602;2022-10-04T10:36:19;14.70;99.90
66328;DHT22;53133;52.862;6.602;2022-10-04T10:39:20;14.80;99.90
66328;DHT22;53133;52.862;6.602;2022-10-04T10:58:36;15.10;99.90
66328;DHT22;53133;52.862;6.602;2022-10-04T11:09:24;15.30;99.90
66328;DHT22;53133;52.862;6.602;2022-10-04T11:14:52;15.40;99.90
66328;DHT22;53133;52.862;6.602;2022-10-04T11:23:39;15.60;99.70
66328;DHT22;53133;52.862;6.602;2022-10-04T11:37:45;15.80;99.00
66328;DHT22;53133;52.862;6.602;2022-10-04T11:45:52;15.90;98.70
66328;DHT22;53133;52.862;6.602;2022-10-04T11:57:28;16.10;97.90
66328;DHT22;53133;52.862;6.602;2022-10-04T12:08:17;16.20;97.70
66328;DHT22;53133;52.862;6.602;2022-10-04T12:14:52;16.20;97.70
66328;DHT22;53133;52.862;6.602;2022-10-04T12:17:58;16.30;97.80
66328;DHT22;53133;52.862;6.602;2022-10-04T12:20:38;16.30;97.60
66328;DHT22;53133;52.862;6.602;2022-10-04T12:26:18;16.30;97.30
66328;DHT22;53133;52.862;6.602;2022-10-04T12:29:15;16.40;97.50
66328;DHT22;53133;52.862;6.602;2022-10-04T12:31:59;16.40;97.20
66328;DHT22;53133;52.862;6.602;2022-10-04T12:34:40;16.50;97.10
66328;DHT22;53133;52.862;6.602;2022-10-04T12:43:39;16.60;96.20
66328;DHT22;53133;52.862;6.602;2022-10-04T12:46:15;16.60;96.10
66328;DHT22;53133;52.862;6.602;2022-10-04T12:49:01;16.60;95.80
66328;DHT22;53133;52.862;6.602;2022-10-04T12:51:54;16.60;96.10
66328;DHT22;53133;52.862;6.602;2022-10-04T12:54:44;16.70;96.40
66328;DHT22;53133;52.862;6.602;2022-10-04T12:57:30;16.70;96.60
66328;DHT22;53133;52.862;6.602;2022-10-04T13:02:56;16.80;96.60
66328;DHT22;53133;52.862;6.602;2022-10-04T13:11:07;16.90;96.20
66328;DHT22;53133;52.862;6.602;2022-10-04T13:22:05;17.00;96.00
66328;DHT22;53133;52.862;6.602;2022-10-04T13:30:22;17.00;96.10
66328;DHT22;53133;52.862;6.602;2022-10-04T13:35:50;17.00;95.60
66328;DHT22;53133;52.862;6.602;2022-10-04T13:38:44;17.00;95.90
66328;DHT22;53133;52.862;6.602;2022-10-04T13:44:11;16.90;96.30
66328;DHT22;53133;52.862;6.602;2022-10-04T13:55:47;16.90;96.30
66328;DHT22;53133;52.862;6.602;2022-10-04T14:04:19;17.10;95.80
66328;DHT22;53133;52.862;6.602;2022-10-04T14:10:02;17.20;95.60
66328;DHT22;53133;52.862;6.602;2022-10-04T14:24:05;17.30;95.00
66328;DHT22;53133;52.862;6.602;2022-10-04T14:35:01;17.40;94.90
66328;DHT22;53133;52.862;6.602;2022-10-04T14:40:30;17.40;94.30
66328;DHT22;53133;52.862;6.602;2022-10-04T14:43:31;17.40;94.00
66328;DHT22;53133;52.862;6.602;2022-10-04T14:46:33;17.40;94.00
66328;DHT22;53133;52.862;6.602;2022-10-04T15:00:06;17.40;94.20
66328;DHT22;53133;52.862;6.602;2022-10-04T15:02:43;17.40;94.30
66328;DHT22;53133;52.862;6.602;2022-10-04T15:11:05;17.40;94.10
66328;DHT22;53133;52.862;6.602;2022-10-04T15:13:36;17.40;94.40
66328;DHT22;53133;52.862;6.602;2022-10-04T15:19:36;17.50;94.20
66328;DHT22;53133;52.862;6.602;2022-10-04T15:24:44;17.50;94.60
66328;DHT22;53133;52.862;6.602;2022-10-04T15:30:17;17.30;94.50
66328;DHT22;53133;52.862;6.602;2022-10-04T15:32:47;17.20;94.70
66328;DHT22;53133;52.862;6.602;2022-10-04T15:35:32;17.10;94.80
66328;DHT22;53133;52.862;6.602;2022-10-04T15:41:18;17.00;95.30
66328;DHT22;53133;52.862;6.602;2022-10-04T15:44:19;16.90;95.50
66328;DHT22;53133;52.862;6.602;2022-10-04T15:52:17;16.80;95.70
66328;DHT22;53133;52.862;6.602;2022-10-04T15:55:21;16.80;96.00
66328;DHT22;53133;52.862;6.602;2022-10-04T15:58:12;16.80;96.00
66328;DHT22;53133;52.862;6.602;2022-10-04T16:00:44;16.80;96.10
66328;DHT22;53133;52.862;6.602;2022-10-04T16:03:26;16.70;96.00
66328;DHT22;53133;52.862;6.602;2022-10-04T16:15:29;16.60;95.70
66328;DHT22;53133;52.862;6.602;2022-10-04T16:18:09;16.60;95.30
66328;DHT22;53133;52.862;6.602;2022-10-04T16:23:33;16.50;95.80
66328;DHT22;53133;52.862;6.602;2022-10-04T16:26:05;16.40;96.10
66328;DHT22;53133;52.862;6.602;2022-10-04T16:28:54;16.40;96.20
66328;DHT22;53133;52.862;6.602;2022-10-04T16:31:47;16.40;96.20
66328;DHT22;53133;52.862;6.602;2022-10-04T16:42:56;16.30;96.30
66328;DHT22;53133;52.862;6.602;2022-10-04T16:56:29;16.10;96.40
66328;DHT22;53133;52.862;6.602;2022-10-04T16:59:09;16.10;96.50
66328;DHT22;53133;52.862;6.602;2022-10-04T17:04:46;16.10;97.00
66328;DHT22;53133;52.862;6.602;2022-10-04T17:07:34;16.00;97.10
66328;DHT22;53133;52.862;6.602;2022-10-04T17:12:54;15.90;97.10
66328;DHT22;53133;52.862;6.602;2022-10-04T17:18:18;15.90;97.50
66328;DHT22;53133;52.862;6.602;2022-10-04T17:20:54;15.80;97.50
66328;DHT22;53133;52.862;6.602;2022-10-04T17:23:36;15.80;97.40
66328;DHT22;53133;52.862;6.602;2022-10-04T17:34:26;15.80;97.40
66328;DHT22;53133;52.862;6.602;2022-10-04T17:39:39;15.80;97.50
66328;DHT22;53133;52.862;6.602;2022-10-04T17:42:28;15.70;97.50
66328;DHT22;53133;52.862;6.602;2022-10-04T17:45:20;15.70;97.50
66328;DHT22;53133;52.862;6.602;2022-10-04T17:47:56;15.70;97.40
66328;DHT22;53133;52.862;6.602;2022-10-04T17:50:57;15.70;97.70
66328;DHT22;53133;52.862;6.602;2022-10-04T17:53:48;15.80;97.50
66328;DHT22;53133;52.862;6.602;2022-10-04T17:56:47;15.70;97.50
66328;DHT22;53133;52.862;6.602;2022-10-04T17:59:21;15.70;97.50
66328;DHT22;53133;52.862;6.602;2022-10-04T18:01:54;15.70;97.50
66328;DHT22;53133;52.862;6.602;2022-10-04T18:04:28;15.70;97.30
66328;DHT22;53133;52.862;6.602;2022-10-04T18:07:13;15.70;97.40
66328;DHT22;53133;52.862;6.602;2022-10-04T18:09:44;15.70;97.50
66328;DHT22;53133;52.862;6.602;2022-10-04T18:12:22;15.80;97.50
66328;DHT22;53133;52.862;6.602;2022-10-04T18:15:14;15.70;97.50
66328;DHT22;53133;52.862;6.602;2022-10-04T18:17:44;15.70;97.30
66328;DHT22;53133;52.862;6.602;2022-10-04T18:20:33;15.70;97.30
66328;DHT22;53133;52.862;6.602;2022-10-04T18:23:16;15.70;97.30
66328;DHT22;53133;52.862;6.602;2022-10-04T18:25:42;15.70;97.30
66328;DHT22;53133;52.862;6.602;2022-10-04T18:30:51;15.80;97.30
66328;DHT22;53133;52.862;6.602;2022-10-04T18:33:23;15.80;97.30
66328;DHT22;53133;52.862;6.602;2022-10-04T18:36:13;15.80;97.30
66328;DHT22;53133;52.862;6.602;2022-10-04T18:38:42;15.80;97.30
66328;DHT22;53133;52.862;6.602;2022-10-04T18:41:26;15.70;97.50
66328;DHT22;53133;52.862;6.602;2022-10-04T18:44:14;15.80;97.40
66328;DHT22;53133;52.862;6.602;2022-10-04T18:46:41;15.80;97.50
66328;DHT22;53133;52.862;6.602;2022-10-04T18:49:20;15.80;97.40
66328;DHT22;53133;52.862;6.602;2022-10-04T19:00:09;15.80;97.30
66328;DHT22;53133;52.862;6.602;2022-10-04T19:06:15;15.80;97.40
66328;DHT22;53133;52.862;6.602;2022-10-04T19:17:00;15.80;97.50
66328;DHT22;53133;52.862;6.602;2022-10-04T19:19:51;15.70;97.70
66328;DHT22;53133;52.862;6.602;2022-10-04T19:22:29;15.70;97.60
66328;DHT22;53133;52.862;6.602;2022-10-04T19:25:22;15.80;97.60
66328;DHT22;53133;52.862;6.602;2022-10-04T19:27:58;15.80;97.50
66328;DHT22;53133;52.862;6.602;2022-10-04T19:33:24;15.80;97.50
66328;DHT22;53133;52.862;6.602;2022-10-04T19:39:00;15.80;97.70
66328;DHT22;53133;52.862;6.602;2022-10-04T19:41:50;15.80;97.70
66328;DHT22;53133;52.862;6.602;2022-10-04T19:44:22;15.70;97.70
66328;DHT22;53133;52.862;6.602;2022-10-04T19:49:51;15.70;97.80
66328;DHT22;53133;52.862;6.602;2022-10-04T19:54:55;15.70;97.90
66328;DHT22;53133;52.862;6.602;2022-10-04T19:57:35;15.70;98.00
66328;DHT22;53133;52.862;6.602;2022-10-04T20:00:12;15.70;97.90
66328;DHT22;53133;52.862;6.602;2022-10-04T20:02:41;15.70;98.00
66328;DHT22;53133;52.862;6.602;2022-10-04T20:05:12;15.70;98.00
66328;DHT22;53133;52.862;6.602;2022-10-04T20:07:38;15.70;97.90
66328;DHT22;53133;52.862;6.602;2022-10-04T20:18:01;15.70;98.20
66328;DHT22;53133;52.862;6.602;2022-10-04T20:23:09;15.70;98.20
66328;DHT22;53133;52.862;6.602;2022-10-04T20:38:53;15.70;98.40
66328;DHT22;53133;52.862;6.602;2022-10-04T20:43:58;15.70;98.60
66328;DHT22;53133;52.862;6.602;2022-10-04T20:46:28;15.70;98.60
66328;DHT22;53133;52.862;6.602;2022-10-04T20:48:57;15.70;98.50
66328;DHT22;53133;52.862;6.602;2022-10-04T20:51:24;15.70;98.50
66328;DHT22;53133;52.862;6.602;2022-10-04T20:53:52;15.80;98.50
66328;DHT22;53133;52.862;6.602;2022-10-04T20:56:30;15.80;98.50
66328;DHT22;53133;52.862;6.602;2022-10-04T20:58:58;15.80;98.50
66328;DHT22;53133;52.862;6.602;2022-10-04T21:01:34;15.80;98.60
66328;DHT22;53133;52.862;6.602;2022-10-04T21:04:25;15.80;98.60
66328;DHT22;53133;52.862;6.602;2022-10-04T21:07:08;15.80;98.60
66328;DHT22;53133;52.862;6.602;2022-10-04T21:09:39;15.80;98.60
66328;DHT22;53133;52.862;6.602;2022-10-04T21:12:23;15.80;98.70
66328;DHT22;53133;52.862;6.602;2022-10-04T21:17:41;15.90;98.70
66328;DHT22;53133;52.862;6.602;2022-10-04T21:20:39;15.70;98.70
66328;DHT22;53133;52.862;6.602;2022-10-04T21:23:08;15.80;98.70
66328;DHT22;53133;52.862;6.602;2022-10-04T21:25:39;15.80;98.80
66328;DHT22;53133;52.862;6.602;2022-10-04T21:28:22;15.80;98.80
66328;DHT22;53133;52.862;6.602;2022-10-04T21:30:48;15.90;98.90
66328;DHT22;53133;52.862;6.602;2022-10-04T21:33:13;15.80;98.80
66328;DHT22;53133;52.862;6.602;2022-10-04T21:35:39;15.80;98.80
66328;DHT22;53133;52.862;6.602;2022-10-04T21:38:04;15.80;98.80
66328;DHT22;53133;52.862;6.602;2022-10-04T21:40:30;15.80;98.90
66328;DHT22;53133;52.862;6.602;2022-10-04T21:42:55;15.80;99.00
66328;DHT22;53133;52.862;6.602;2022-10-04T21:45:21;15.80;99.10
66328;DHT22;53133;52.862;6.602;2022-10-04T21:47:46;15.80;99.10
66328;DHT22;53133;52.862;6.602;2022-10-04T21:50:12;15.80;99.10
66328;DHT22;53133;52.862;6.602;2022-10-04T21:52:38;15.80;99.10
66328;DHT22;53133;52.862;6.602;2022-10-04T21:55:04;15.80;99.20
66328;DHT22;53133;52.862;6.602;2022-10-04T21:57:34;15.80;99.20
66328;DHT22;53133;52.862;6.602;2022-10-04T22:00:00;15.80;99.20
66328;DHT22;53133;52.862;6.602;2022-10-04T22:02:26;15.80;99.20
66328;DHT22;53133;52.862;6.602;2022-10-04T22:04:51;15.80;99.30
66328;DHT22;53133;52.862;6.602;2022-10-04T22:07:17;15.80;99.30
66328;DHT22;53133;52.862;6.602;2022-10-04T22:09:42;15.80;99.30
66328;DHT22;53133;52.862;6.602;2022-10-04T22:12:08;15.80;99.40
66328;DHT22;53133;52.862;6.602;2022-10-04T22:14:33;15.80;99.40
66328;DHT22;53133;52.862;6.602;2022-10-04T22:16:59;15.80;99.50
66328;DHT22;53133;52.862;6.602;2022-10-04T22:19:24;15.80;99.50
66328;DHT22;53133;52.862;6.602;2022-10-04T22:21:50;15.80;99.40
66328;DHT22;53133;52.862;6.602;2022-10-04T22:24:17;15.80;99.50
66328;DHT22;53133;52.862;6.602;2022-10-04T22:26:43;15.80;99.60
66328;DHT22;53133;52.862;6.602;2022-10-04T22:29:14;15.80;99.60
66328;DHT22;53133;52.862;6.602;2022-10-04T22:31:48;15.80;99.50
66328;DHT22;53133;52.862;6.602;2022-10-04T22:34:16;15.80;99.60
66328;DHT22;53133;52.862;6.602;2022-10-04T22:36:43;15.80;99.70
66328;DHT22;53133;52.862;6.602;2022-10-04T22:39:15;15.80;99.80
66328;DHT22;53133;52.862;6.602;2022-10-04T22:44:24;15.80;99.80
66328;DHT22;53133;52.862;6.602;2022-10-04T22:46:55;15.80;99.90
66328;DHT22;53133;52.862;6.602;2022-10-04T22:49:30;15.80;99.90
66328;DHT22;53133;52.862;6.602;2022-10-04T22:51:57;15.80;99.90
66328;DHT22;53133;52.862;6.602;2022-10-04T22:54:31;15.80;99.90
66328;DHT22;53133;52.862;6.602;2022-10-04T22:56:57;15.80;99.90
66328;DHT22;53133;52.862;6.602;2022-10-04T22:59:33;15.80;99.90
66328;DHT22;53133;52.862;6.602;2022-10-04T23:02:05;15.80;99.90
66328;DHT22;53133;52.862;6.602;2022-10-04T23:04:31;15.80;99.90
66328;DHT22;53133;52.862;6.602;2022-10-04T23:06:57;15.80;99.90
66328;DHT22;53133;52.862;6.602;2022-10-04T23:09:22;15.80;99.90
66328;DHT22;53133;52.862;6.602;2022-10-04T23:11:48;15.80;99.90
66328;DHT22;53133;52.862;6.602;2022-10-04T23:14:14;15.80;99.90
66328;DHT22;53133;52.862;6.602;2022-10-04T23:16:39;15.80;99.90
66328;DHT22;53133;52.862;6.602;2022-10-04T23:19:18;15.80;99.90
66328;DHT22;53133;52.862;6.602;2022-10-04T23:21:46;15.70;99.90
66328;DHT22;53133;52.862;6.602;2022-10-04T23:24:13;15.80;99.90
66328;DHT22;53133;52.862;6.602;2022-10-04T23:26:41;15.80;99.90
66328;DHT22;53133;52.862;6.602;2022-10-04T23:31:41;15.80;99.90
66328;DHT22;53133;52.862;6.602;2022-10-04T23:34:17;15.70;99.90
66328;DHT22;53133;52.862;6.602;2022-10-04T23:36:43;15.70;99.90
66328;DHT22;53133;52.862;6.602;2022-10-04T23:39:12;15.70;99.90
66328;DHT22;53133;52.862;6.602;2022-10-04T23:41:42;15.70;99.90
66328;DHT22;53133;52.862;6.602;2022-10-04T23:44:12;15.70;99.90
66328;DHT22;53133;52.862;6.602;2022-10-04T23:46:40;15.70;99.90
66328;DHT22;53133;52.862;6.602;2022-10-04T23:49:11;15.70;99.90
66328;DHT22;53133;52.862;6.602;2022-10-04T23:51:38;15.80;99.90
66328;DHT22;53133;52.862;6.602;2022-10-04T23:54:07;15.70;99.90
66328;DHT22;53133;52.862;6.602;2022-10-04T23:56:34;15.70;99.90
66328;DHT22;53133;52.862;6.602;2022-10-04T23:59:00;15.70;99.90
